sensor_id;sensor_type;location;lat;lon;timestamp;pressure;altitude;pressure_sealevel;temperature;humidity
51526;BME280;37611;51.794;21.590;2023-02-18T00:03:30;98873.50;;;7.38;100.00
51526;BME280;37611;51.794;21.590;2023-02-18T00:07:36;98891.63;;;7.27;100.00
51526;BME280;37611;51.794;21.590;2023-02-18T00:11:38;98909.23;;;7.17;100.00
51526;BME280;37611;51.794;21.590;2023-02-18T00:15:40;98920.06;;;7.05;100.00
51526;BME280;37611;51.794;21.590;2023-02-18T00:19:41;98935.78;;;6.96;100.00
51526;BME280;37611;51.794;21.590;2023-02-18T00:23:43;98939.92;;;6.86;100.00
51526;BME280;37611;51.794;21.590;2023-02-18T00:27:45;98955.26;;;6.79;100.00
51526;BME280;37611;51.794;21.590;2023-02-18T00:31:47;98968.94;;;6.72;100.00
51526;BME280;37611;51.794;21.590;2023-02-18T00:35:48;98966.73;;;6.70;100.00
51526;BME280;37611;51.794;21.590;2023-02-18T00:39:50;98966.41;;;6.66;100.00
51526;BME280;37611;51.794;21.590;2023-02-18T00:43:52;98965.23;;;6.55;100.00
51526;BME280;37611;51.794;21.590;2023-02-18T00:47:54;98961.27;;;6.52;100.00
51526;BME280;37611;51.794;21.590;2023-02-18T00:51:56;98964.91;;;6.46;99.66
51526;BME280;37611;51.794;21.590;2023-02-18T00:55:58;98976.73;;;6.39;99.47
51526;BME280;37611;51.794;21.590;2023-02-18T01:00:00;98982.00;;;6.31;98.33
51526;BME280;37611;51.794;21.590;2023-02-18T01:04:01;98984.28;;;6.24;97.45
51526;BME280;37611;51.794;21.590;2023-02-18T01:08:04;98985.64;;;6.26;98.07
51526;BME280;37611;51.794;21.590;2023-02-18T01:12:05;98987.59;;;6.21;96.85
51526;BME280;37611;51.794;21.590;2023-02-18T01:16:08;98990.74;;;6.19;96.42
51526;BME280;37611;51.794;21.590;2023-02-18T01:20:12;98992.18;;;6.20;95.83
51526;BME280;37611;51.794;21.590;2023-02-18T01:24:14;99007.52;;;6.25;93.24
51526;BME280;37611;51.794;21.590;2023-02-18T01:28:16;99002.00;;;6.28;92.20
51526;BME280;37611;51.794;21.590;2023-02-18T01:32:18;99003.52;;;6.28;92.99
51526;BME280;37611;51.794;21.590;2023-02-18T01:36:20;99000.45;;;6.26;93.06
51526;BME280;37611;51.794;21.590;2023-02-18T01:40:25;99005.52;;;6.24;92.05
51526;BME280;37611;51.794;21.590;2023-02-18T01:44:27;99007.33;;;6.25;92.80
51526;BME280;37611;51.794;21.590;2023-02-18T01:48:46;99012.79;;;6.26;92.28
51526;BME280;37611;51.794;21.590;2023-02-18T01:52:49;99016.67;;;6.27;91.81
51526;BME280;37611;51.794;21.590;2023-02-18T01:56:57;99012.11;;;6.29;91.20
51526;BME280;37611;51.794;21.590;2023-02-18T02:01:00;99013.19;;;6.31;91.25
51526;BME280;37611;51.794;21.590;2023-02-18T02:05:02;99009.38;;;6.34;90.24
51526;BME280;37611;51.794;21.590;2023-02-18T02:09:06;99002.77;;;6.36;91.07
51526;BME280;37611;51.794;21.590;2023-02-18T02:31:07;99017.11;;;6.32;89.90
51526;BME280;37611;51.794;21.590;2023-02-18T02:35:19;99014.77;;;6.32;90.13
51526;BME280;37611;51.794;21.590;2023-02-18T02:39:32;99020.30;;;6.33;89.60
51526;BME280;37611;51.794;21.590;2023-02-18T02:52:47;99020.72;;;6.34;87.52
51526;BME280;37611;51.794;21.590;2023-02-18T03:06:13;99024.70;;;6.25;86.89
51526;BME280;37611;51.794;21.590;2023-02-18T03:15:10;99035.23;;;6.21;86.15
51526;BME280;37611;51.794;21.590;2023-02-18T03:19:40;99039.22;;;6.19;85.89
51526;BME280;37611;51.794;21.590;2023-02-18T03:24:02;99038.91;;;6.13;86.05
51526;BME280;37611;51.794;21.590;2023-02-18T03:28:14;99045.89;;;6.13;86.21
51526;BME280;37611;51.794;21.590;2023-02-18T03:32:20;99048.66;;;6.15;85.87
51526;BME280;37611;51.794;21.590;2023-02-18T03:36:23;99053.67;;;6.11;85.69
51526;BME280;37611;51.794;21.590;2023-02-18T03:40:27;99056.07;;;6.10;85.72
51526;BME280;37611;51.794;21.590;2023-02-18T03:44:30;99058.37;;;6.06;85.26
51526;BME280;37611;51.794;21.590;2023-02-18T03:48:32;99066.96;;;6.01;85.10
51526;BME280;37611;51.794;21.590;2023-02-18T03:52:34;99076.82;;;5.95;85.40
51526;BME280;37611;51.794;21.590;2023-02-18T03:56:37;99079.37;;;5.91;86.17
51526;BME280;37611;51.794;21.590;2023-02-18T04:00:39;99077.98;;;5.85;86.54
51526;BME280;37611;51.794;21.590;2023-02-18T04:04:40;99081.55;;;5.81;86.21
51526;BME280;37611;51.794;21.590;2023-02-18T04:08:42;99085.66;;;5.80;86.12
51526;BME280;37611;51.794;21.590;2023-02-18T04:12:44;99092.11;;;5.80;86.29
51526;BME280;37611;51.794;21.590;2023-02-18T04:16:46;99085.33;;;5.81;86.30
51526;BME280;37611;51.794;21.590;2023-02-18T04:20:48;99083.69;;;5.78;85.38
51526;BME280;37611;51.794;21.590;2023-02-18T04:24:49;99090.68;;;5.74;86.38
51526;BME280;37611;51.794;21.590;2023-02-18T04:28:51;99092.73;;;5.71;86.59
51526;BME280;37611;51.794;21.590;2023-02-18T04:32:53;99084.70;;;5.68;85.75
51526;BME280;37611;51.794;21.590;2023-02-18T04:36:54;99087.08;;;5.63;86.01
51526;BME280;37611;51.794;21.590;2023-02-18T04:40:57;99086.69;;;5.58;86.14
51526;BME280;37611;51.794;21.590;2023-02-18T04:44:59;99089.85;;;5.52;86.36
51526;BME280;37611;51.794;21.590;2023-02-18T04:49:01;99084.75;;;5.47;86.30
51526;BME280;37611;51.794;21.590;2023-02-18T04:53:03;99086.92;;;5.42;86.56
51526;BME280;37611;51.794;21.590;2023-02-18T04:57:05;99093.22;;;5.41;86.53
51526;BME280;37611;51.794;21.590;2023-02-18T05:01:06;99091.39;;;5.40;86.30
51526;BME280;37611;51.794;21.590;2023-02-18T05:05:09;99092.88;;;5.39;86.88
51526;BME280;37611;51.794;21.590;2023-02-18T05:09:11;99092.94;;;5.37;86.68
51526;BME280;37611;51.794;21.590;2023-02-18T05:13:12;99092.36;;;5.35;87.16
51526;BME280;37611;51.794;21.590;2023-02-18T05:17:14;99094.33;;;5.31;87.02
51526;BME280;37611;51.794;21.590;2023-02-18T05:21:16;99095.66;;;5.30;87.06
51526;BME280;37611;51.794;21.590;2023-02-18T05:25:18;99107.70;;;5.27;87.29
51526;BME280;37611;51.794;21.590;2023-02-18T05:29:19;99110.27;;;5.26;87.38
51526;BME280;37611;51.794;21.590;2023-02-18T05:33:21;99104.06;;;5.29;87.09
51526;BME280;37611;51.794;21.590;2023-02-18T05:37:23;99110.90;;;5.28;87.46
51526;BME280;37611;51.794;21.590;2023-02-18T05:41:24;99111.77;;;5.23;88.19
51526;BME280;37611;51.794;21.590;2023-02-18T05:45:26;99119.32;;;5.20;88.62
51526;BME280;37611;51.794;21.590;2023-02-18T05:49:30;99122.00;;;5.17;88.64
51526;BME280;37611;51.794;21.590;2023-02-18T05:53:32;99121.16;;;5.13;88.59
51526;BME280;37611;51.794;21.590;2023-02-18T05:57:33;99120.94;;;5.13;88.89
51526;BME280;37611;51.794;21.590;2023-02-18T06:01:35;99129.98;;;5.13;88.89
51526;BME280;37611;51.794;21.590;2023-02-18T06:05:37;99134.98;;;5.15;88.78
51526;BME280;37611;51.794;21.590;2023-02-18T06:09:38;99132.44;;;5.15;88.91
51526;BME280;37611;51.794;21.590;2023-02-18T06:13:40;99139.81;;;5.14;88.58
51526;BME280;37611;51.794;21.590;2023-02-18T06:17:42;99149.11;;;5.13;88.47
51526;BME280;37611;51.794;21.590;2023-02-18T06:21:44;99153.85;;;5.12;88.67
51526;BME280;37611;51.794;21.590;2023-02-18T06:25:47;99156.88;;;5.11;88.90
51526;BME280;37611;51.794;21.590;2023-02-18T06:29:49;99167.80;;;5.11;89.52
51526;BME280;37611;51.794;21.590;2023-02-18T06:33:51;99171.48;;;5.13;89.33
51526;BME280;37611;51.794;21.590;2023-02-18T06:37:53;99185.50;;;5.17;88.79
51526;BME280;37611;51.794;21.590;2023-02-18T06:41:54;99182.30;;;5.16;88.92
51526;BME280;37611;51.794;21.590;2023-02-18T06:45:56;99185.60;;;5.16;88.98
51526;BME280;37611;51.794;21.590;2023-02-18T06:49:58;99186.48;;;5.14;88.97
51526;BME280;37611;51.794;21.590;2023-02-18T06:54:00;99183.30;;;5.13;88.60
51526;BME280;37611;51.794;21.590;2023-02-18T06:58:01;99192.45;;;5.13;88.66
51526;BME280;37611;51.794;21.590;2023-02-18T07:02:03;99187.94;;;5.13;88.60
51526;BME280;37611;51.794;21.590;2023-02-18T07:06:05;99201.66;;;5.19;88.04
51526;BME280;37611;51.794;21.590;2023-02-18T07:10:08;99195.58;;;5.19;88.05
51526;BME280;37611;51.794;21.590;2023-02-18T07:14:10;99205.66;;;5.17;88.52
51526;BME280;37611;51.794;21.590;2023-02-18T07:18:12;99199.80;;;5.16;88.35
51526;BME280;37611;51.794;21.590;2023-02-18T07:22:14;99205.59;;;5.18;88.41
51526;BME280;37611;51.794;21.590;2023-02-18T07:26:15;99202.52;;;5.19;88.69
51526;BME280;37611;51.794;21.590;2023-02-18T07:30:18;99206.27;;;5.26;88.14
51526;BME280;37611;51.794;21.590;2023-02-18T07:34:20;99203.46;;;5.34;86.77
51526;BME280;37611;51.794;21.590;2023-02-18T07:38:23;99216.21;;;5.37;86.39
51526;BME280;37611;51.794;21.590;2023-02-18T07:42:25;99215.27;;;5.37;86.49
51526;BME280;37611;51.794;21.590;2023-02-18T07:46:27;99215.34;;;5.38;86.34
51526;BME280;37611;51.794;21.590;2023-02-18T07:50:29;99210.89;;;5.40;86.21
51526;BME280;37611;51.794;21.590;2023-02-18T07:54:35;99211.94;;;5.42;86.72
51526;BME280;37611;51.794;21.590;2023-02-18T07:58:38;99196.57;;;5.49;86.41
51526;BME280;37611;51.794;21.590;2023-02-18T08:02:40;99205.41;;;5.56;86.33
51526;BME280;37611;51.794;21.590;2023-02-18T08:06:44;99199.63;;;5.61;86.55
51526;BME280;37611;51.794;21.590;2023-02-18T08:10:48;99196.38;;;5.79;85.70
51526;BME280;37611;51.794;21.590;2023-02-18T08:14:50;99196.89;;;5.92;83.83
51526;BME280;37611;51.794;21.590;2023-02-18T08:18:52;99202.17;;;6.22;81.93
51526;BME280;37611;51.794;21.590;2023-02-18T08:22:54;99198.11;;;6.26;82.00
51526;BME280;37611;51.794;21.590;2023-02-18T08:26:56;99207.79;;;6.51;80.80
51526;BME280;37611;51.794;21.590;2023-02-18T08:30:58;99205.33;;;6.44;80.14
51526;BME280;37611;51.794;21.590;2023-02-18T08:35:00;99210.17;;;6.40;80.84
51526;BME280;37611;51.794;21.590;2023-02-18T08:39:02;99217.09;;;6.43;81.33
51526;BME280;37611;51.794;21.590;2023-02-18T08:43:03;99221.41;;;6.41;80.80
51526;BME280;37611;51.794;21.590;2023-02-18T08:47:05;99222.66;;;6.43;81.32
51526;BME280;37611;51.794;21.590;2023-02-18T08:51:16;99233.44;;;6.39;81.45
51526;BME280;37611;51.794;21.590;2023-02-18T08:55:19;99231.59;;;6.42;80.79
51526;BME280;37611;51.794;21.590;2023-02-18T08:59:23;99223.64;;;6.32;79.89
51526;BME280;37611;51.794;21.590;2023-02-18T09:03:24;99224.13;;;6.29;79.63
51526;BME280;37611;51.794;21.590;2023-02-18T09:07:27;99226.88;;;6.25;79.70
51526;BME280;37611;51.794;21.590;2023-02-18T09:11:29;99226.93;;;6.27;80.01
51526;BME280;37611;51.794;21.590;2023-02-18T09:15:30;99230.43;;;6.30;79.74
51526;BME280;37611;51.794;21.590;2023-02-18T09:19:32;99232.70;;;6.37;79.22
51526;BME280;37611;51.794;21.590;2023-02-18T09:23:34;99234.40;;;6.49;79.47
51526;BME280;37611;51.794;21.590;2023-02-18T09:27:36;99237.86;;;6.55;78.89
51526;BME280;37611;51.794;21.590;2023-02-18T09:31:38;99230.23;;;6.61;78.23
51526;BME280;37611;51.794;21.590;2023-02-18T09:35:41;99247.29;;;6.69;77.85
51526;BME280;37611;51.794;21.590;2023-02-18T09:39:42;99246.16;;;6.72;76.98
51526;BME280;37611;51.794;21.590;2023-02-18T09:43:47;99253.30;;;6.72;75.93
51526;BME280;37611;51.794;21.590;2023-02-18T09:47:50;99255.20;;;6.79;75.97
51526;BME280;37611;51.794;21.590;2023-02-18T09:51:53;99250.13;;;6.76;75.88
51526;BME280;37611;51.794;21.590;2023-02-18T09:55:56;99255.27;;;6.75;75.44
51526;BME280;37611;51.794;21.590;2023-02-18T10:00:01;99262.39;;;6.87;75.83
51526;BME280;37611;51.794;21.590;2023-02-18T10:04:29;99251.21;;;6.95;75.77
51526;BME280;37611;51.794;21.590;2023-02-18T10:08:45;99259.70;;;7.17;75.70
51526;BME280;37611;51.794;21.590;2023-02-18T10:12:47;99251.17;;;7.46;75.44
51526;BME280;37611;51.794;21.590;2023-02-18T10:16:51;99252.30;;;7.64;73.32
51526;BME280;37611;51.794;21.590;2023-02-18T10:21:00;99252.63;;;7.72;72.38
51526;BME280;37611;51.794;21.590;2023-02-18T10:25:05;99251.19;;;7.82;72.44
51526;BME280;37611;51.794;21.590;2023-02-18T10:29:18;99252.49;;;7.73;71.25
51526;BME280;37611;51.794;21.590;2023-02-18T10:37:41;99250.06;;;7.38;72.37
51526;BME280;37611;51.794;21.590;2023-02-18T10:50:34;99244.21;;;7.58;72.18
51526;BME280;37611;51.794;21.590;2023-02-18T10:59:00;99244.88;;;7.71;71.42
51526;BME280;37611;51.794;21.590;2023-02-18T11:03:17;99248.08;;;7.68;72.58
51526;BME280;37611;51.794;21.590;2023-02-18T11:07:27;99240.60;;;7.59;72.65
51526;BME280;37611;51.794;21.590;2023-02-18T11:11:32;99237.28;;;7.42;73.13
51526;BME280;37611;51.794;21.590;2023-02-18T11:15:34;99240.64;;;7.32;73.73
51526;BME280;37611;51.794;21.590;2023-02-18T11:19:38;99236.98;;;7.11;73.75
51526;BME280;37611;51.794;21.590;2023-02-18T11:23:49;99226.45;;;7.03;74.70
51526;BME280;37611;51.794;21.590;2023-02-18T11:31:55;99225.11;;;7.06;74.66
51526;BME280;37611;51.794;21.590;2023-02-18T11:36:03;99224.32;;;7.12;74.05
51526;BME280;37611;51.794;21.590;2023-02-18T11:40:19;99220.27;;;7.09;73.68
51526;BME280;37611;51.794;21.590;2023-02-18T11:44:32;99229.52;;;7.07;74.68
51526;BME280;37611;51.794;21.590;2023-02-18T11:48:35;99221.25;;;7.15;74.99
51526;BME280;37611;51.794;21.590;2023-02-18T11:52:46;99210.00;;;7.20;74.44
51526;BME280;37611;51.794;21.590;2023-02-18T11:57:03;99204.86;;;7.28;75.17
51526;BME280;37611;51.794;21.590;2023-02-18T12:01:12;99202.36;;;7.48;74.05
51526;BME280;37611;51.794;21.590;2023-02-18T12:05:26;99205.20;;;7.49;72.18
51526;BME280;37611;51.794;21.590;2023-02-18T12:13:38;99193.91;;;7.65;73.68
51526;BME280;37611;51.794;21.590;2023-02-18T12:18:06;99205.67;;;7.67;73.03
51526;BME280;37611;51.794;21.590;2023-02-18T12:22:30;99199.96;;;7.54;72.84
51526;BME280;37611;51.794;21.590;2023-02-18T12:57:35;99170.36;;;7.28;73.83
51526;BME280;37611;51.794;21.590;2023-02-18T13:01:40;99167.06;;;7.24;74.36
51526;BME280;37611;51.794;21.590;2023-02-18T13:14:49;99158.36;;;6.96;75.19
51526;BME280;37611;51.794;21.590;2023-02-18T13:19:06;99144.34;;;6.97;75.60
51526;BME280;37611;51.794;21.590;2023-02-18T13:23:22;99141.44;;;6.97;76.02
51526;BME280;37611;51.794;21.590;2023-02-18T13:27:44;99144.23;;;6.96;76.29
51526;BME280;37611;51.794;21.590;2023-02-18T13:36:30;99140.00;;;7.00;75.39
51526;BME280;37611;51.794;21.590;2023-02-18T13:40:34;99132.48;;;6.94;75.22
51526;BME280;37611;51.794;21.590;2023-02-18T13:48:43;99125.66;;;6.92;76.19
51526;BME280;37611;51.794;21.590;2023-02-18T13:52:49;99126.69;;;6.85;76.20
51526;BME280;37611;51.794;21.590;2023-02-18T13:57:03;99127.29;;;6.83;76.40
51526;BME280;37611;51.794;21.590;2023-02-18T14:01:13;99127.03;;;6.80;76.33
51526;BME280;37611;51.794;21.590;2023-02-18T14:05:23;99128.72;;;6.75;76.89
51526;BME280;37611;51.794;21.590;2023-02-18T14:26:36;99116.62;;;6.55;77.63
51526;BME280;37611;51.794;21.590;2023-02-18T14:30:40;99105.02;;;6.52;77.80
51526;BME280;37611;51.794;21.590;2023-02-18T14:34:49;99112.68;;;6.45;78.34
51526;BME280;37611;51.794;21.590;2023-02-18T14:47:55;99092.09;;;6.31;78.63
51526;BME280;37611;51.794;21.590;2023-02-18T14:52:03;99085.30;;;6.27;79.38
51526;BME280;37611;51.794;21.590;2023-02-18T14:56:08;99081.46;;;6.26;79.43
51526;BME280;37611;51.794;21.590;2023-02-18T15:00:15;99061.81;;;6.23;79.61
51526;BME280;37611;51.794;21.590;2023-02-18T15:04:17;99048.69;;;6.18;80.22
51526;BME280;37611;51.794;21.590;2023-02-18T15:08:21;99045.30;;;6.15;80.80
51526;BME280;37611;51.794;21.590;2023-02-18T15:12:23;99039.10;;;6.14;81.20
51526;BME280;37611;51.794;21.590;2023-02-18T15:16:29;99037.15;;;6.11;81.02
51526;BME280;37611;51.794;21.590;2023-02-18T15:20:33;99032.45;;;6.08;81.61
51526;BME280;37611;51.794;21.590;2023-02-18T15:24:36;99030.45;;;6.07;81.88
51526;BME280;37611;51.794;21.590;2023-02-18T15:28:42;99030.83;;;6.05;81.76
51526;BME280;37611;51.794;21.590;2023-02-18T15:32:56;99026.77;;;6.04;81.07
51526;BME280;37611;51.794;21.590;2023-02-18T15:37:00;99032.04;;;6.01;81.29
51526;BME280;37611;51.794;21.590;2023-02-18T15:41:02;99037.22;;;5.92;81.46
51526;BME280;37611;51.794;21.590;2023-02-18T15:45:16;99033.23;;;5.85;81.35
51526;BME280;37611;51.794;21.590;2023-02-18T15:49:21;99032.66;;;5.76;82.07
51526;BME280;37611;51.794;21.590;2023-02-18T15:53:24;99035.17;;;5.68;82.63
51526;BME280;37611;51.794;21.590;2023-02-18T15:57:28;99042.11;;;5.61;82.91
51526;BME280;37611;51.794;21.590;2023-02-18T16:01:30;99046.00;;;5.49;84.02
51526;BME280;37611;51.794;21.590;2023-02-18T16:05:36;99042.04;;;5.43;84.38
51526;BME280;37611;51.794;21.590;2023-02-18T16:09:38;99040.75;;;5.41;85.09
51526;BME280;37611;51.794;21.590;2023-02-18T16:13:45;99041.20;;;5.35;85.65
51526;BME280;37611;51.794;21.590;2023-02-18T16:17:48;99046.04;;;5.30;86.42
51526;BME280;37611;51.794;21.590;2023-02-18T16:21:50;99051.98;;;5.27;87.00
51526;BME280;37611;51.794;21.590;2023-02-18T16:25:51;99054.36;;;5.24;87.36
51526;BME280;37611;51.794;21.590;2023-02-18T16:29:59;99051.69;;;5.13;89.00
51526;BME280;37611;51.794;21.590;2023-02-18T16:34:02;99063.00;;;4.98;92.50
51526;BME280;37611;51.794;21.590;2023-02-18T16:38:04;99075.72;;;4.80;94.06
51526;BME280;37611;51.794;21.590;2023-02-18T16:42:09;99077.14;;;4.62;97.18
51526;BME280;37611;51.794;21.590;2023-02-18T16:46:15;99075.33;;;4.50;98.90
51526;BME280;37611;51.794;21.590;2023-02-18T16:50:20;99069.81;;;4.37;99.57
51526;BME280;37611;51.794;21.590;2023-02-18T16:54:22;99087.66;;;4.26;100.00
51526;BME280;37611;51.794;21.590;2023-02-18T16:58:24;99085.86;;;4.12;100.00
51526;BME280;37611;51.794;21.590;2023-02-18T17:02:26;99080.65;;;4.05;100.00
51526;BME280;37611;51.794;21.590;2023-02-18T17:06:29;99072.55;;;3.98;100.00
51526;BME280;37611;51.794;21.590;2023-02-18T17:10:31;99069.42;;;3.90;100.00
51526;BME280;37611;51.794;21.590;2023-02-18T17:14:32;99075.77;;;3.87;100.00
51526;BME280;37611;51.794;21.590;2023-02-18T17:18:34;99074.70;;;3.83;100.00
51526;BME280;37611;51.794;21.590;2023-02-18T17:22:36;99079.42;;;3.81;100.00
51526;BME280;37611;51.794;21.590;2023-02-18T17:26:38;99075.73;;;3.76;100.00
51526;BME280;37611;51.794;21.590;2023-02-18T17:30:41;99073.33;;;3.73;100.00
51526;BME280;37611;51.794;21.590;2023-02-18T17:34:43;99075.00;;;3.74;100.00
51526;BME280;37611;51.794;21.590;2023-02-18T17:38:45;99070.84;;;3.72;100.00
51526;BME280;37611;51.794;21.590;2023-02-18T17:42:47;99070.98;;;3.66;100.00
51526;BME280;37611;51.794;21.590;2023-02-18T17:46:49;99063.45;;;3.63;100.00
51526;BME280;37611;51.794;21.590;2023-02-18T17:50:51;99067.77;;;3.57;100.00
51526;BME280;37611;51.794;21.590;2023-02-18T17:54:53;99069.90;;;3.54;100.00
51526;BME280;37611;51.794;21.590;2023-02-18T17:58:55;99071.28;;;3.54;100.00
51526;BME280;37611;51.794;21.590;2023-02-18T18:02:57;99072.39;;;3.50;100.00
51526;BME280;37611;51.794;21.590;2023-02-18T18:06:59;99068.88;;;3.48;100.00
51526;BME280;37611;51.794;21.590;2023-02-18T18:11:01;99072.52;;;3.44;100.00
51526;BME280;37611;51.794;21.590;2023-02-18T18:15:14;99065.91;;;3.42;100.00
51526;BME280;37611;51.794;21.590;2023-02-18T18:19:20;99055.35;;;3.40;100.00
51526;BME280;37611;51.794;21.590;2023-02-18T18:23:21;99044.27;;;3.38;100.00
51526;BME280;37611;51.794;21.590;2023-02-18T18:27:23;99041.14;;;3.34;100.00
51526;BME280;37611;51.794;21.590;2023-02-18T18:31:25;99035.64;;;3.32;100.00
51526;BME280;37611;51.794;21.590;2023-02-18T18:39:28;99043.87;;;3.33;100.00
51526;BME280;37611;51.794;21.590;2023-02-18T18:43:31;99044.73;;;3.29;100.00
51526;BME280;37611;51.794;21.590;2023-02-18T18:47:33;99045.23;;;3.25;100.00
51526;BME280;37611;51.794;21.590;2023-02-18T18:51:35;99045.45;;;3.22;100.00
51526;BME280;37611;51.794;21.590;2023-02-18T18:55:37;99042.68;;;3.24;100.00
51526;BME280;37611;51.794;21.590;2023-02-18T18:59:41;99040.52;;;3.26;100.00
51526;BME280;37611;51.794;21.590;2023-02-18T19:03:44;99037.82;;;3.25;100.00
51526;BME280;37611;51.794;21.590;2023-02-18T19:07:46;99035.91;;;3.23;100.00
51526;BME280;37611;51.794;21.590;2023-02-18T19:11:48;99043.09;;;3.17;100.00
51526;BME280;37611;51.794;21.590;2023-02-18T19:15:59;99057.41;;;3.16;100.00
51526;BME280;37611;51.794;21.590;2023-02-18T19:20:02;99057.86;;;3.17;100.00
51526;BME280;37611;51.794;21.590;2023-02-18T19:24:04;99059.95;;;3.15;100.00
51526;BME280;37611;51.794;21.590;2023-02-18T19:28:06;99063.45;;;3.16;100.00
51526;BME280;37611;51.794;21.590;2023-02-18T19:32:09;99061.36;;;3.16;100.00
51526;BME280;37611;51.794;21.590;2023-02-18T19:36:10;99074.14;;;3.16;100.00
51526;BME280;37611;51.794;21.590;2023-02-18T19:40:16;99077.58;;;3.13;100.00
51526;BME280;37611;51.794;21.590;2023-02-18T19:44:18;99082.09;;;3.10;100.00
51526;BME280;37611;51.794;21.590;2023-02-18T19:48:20;99082.47;;;3.10;100.00
51526;BME280;37611;51.794;21.590;2023-02-18T19:52:25;99081.09;;;3.06;100.00
51526;BME280;37611;51.794;21.590;2023-02-18T19:56:27;99093.45;;;3.05;100.00
51526;BME280;37611;51.794;21.590;2023-02-18T20:00:29;99101.18;;;3.01;100.00
51526;BME280;37611;51.794;21.590;2023-02-18T20:04:31;99093.20;;;3.00;100.00
51526;BME280;37611;51.794;21.590;2023-02-18T20:08:33;99089.33;;;2.94;100.00
51526;BME280;37611;51.794;21.590;2023-02-18T20:12:37;99097.38;;;2.88;100.00
51526;BME280;37611;51.794;21.590;2023-02-18T20:16:39;99110.47;;;2.87;100.00
51526;BME280;37611;51.794;21.590;2023-02-18T20:20:46;99112.98;;;2.86;100.00
51526;BME280;37611;51.794;21.590;2023-02-18T20:24:49;99116.02;;;2.84;100.00
51526;BME280;37611;51.794;21.590;2023-02-18T20:28:50;99116.48;;;2.83;100.00
51526;BME280;37611;51.794;21.590;2023-02-18T20:32:52;99112.21;;;2.82;100.00
51526;BME280;37611;51.794;21.590;2023-02-18T20:36:54;99122.39;;;2.79;100.00
51526;BME280;37611;51.794;21.590;2023-02-18T20:41:05;99138.27;;;2.79;100.00
51526;BME280;37611;51.794;21.590;2023-02-18T20:45:09;99140.60;;;2.80;100.00
51526;BME280;37611;51.794;21.590;2023-02-18T20:49:13;99137.77;;;2.77;100.00
51526;BME280;37611;51.794;21.590;2023-02-18T20:53:15;99139.92;;;2.78;100.00
51526;BME280;37611;51.794;21.590;2023-02-18T20:57:17;99153.06;;;2.78;100.00
51526;BME280;37611;51.794;21.590;2023-02-18T21:01:19;99174.64;;;2.76;100.00
51526;BME280;37611;51.794;21.590;2023-02-18T21:05:21;99183.48;;;2.80;100.00
51526;BME280;37611;51.794;21.590;2023-02-18T21:09:23;99184.47;;;2.80;100.00
51526;BME280;37611;51.794;21.590;2023-02-18T21:13:25;99191.42;;;2.84;100.00
51526;BME280;37611;51.794;21.590;2023-02-18T21:17:28;99192.80;;;2.86;100.00
51526;BME280;37611;51.794;21.590;2023-02-18T21:21:31;99200.45;;;2.86;100.00
51526;BME280;37611;51.794;21.590;2023-02-18T21:25:34;99199.41;;;2.86;100.00
51526;BME280;37611;51.794;21.590;2023-02-18T21:29:36;99205.30;;;2.84;100.00
51526;BME280;37611;51.794;21.590;2023-02-18T21:33:38;99213.38;;;2.84;100.00
51526;BME280;37611;51.794;21.590;2023-02-18T21:37:39;99214.48;;;2.86;100.00
51526;BME280;37611;51.794;21.590;2023-02-18T21:41:41;99225.28;;;2.85;100.00
51526;BME280;37611;51.794;21.590;2023-02-18T21:45:43;99231.22;;;2.86;100.00
51526;BME280;37611;51.794;21.590;2023-02-18T21:49:44;99234.57;;;2.85;100.00
51526;BME280;37611;51.794;21.590;2023-02-18T21:53:46;99234.78;;;2.89;100.00
51526;BME280;37611;51.794;21.590;2023-02-18T21:57:53;99243.32;;;2.92;100.00
51526;BME280;37611;51.794;21.590;2023-02-18T22:01:56;99254.23;;;2.95;100.00
51526;BME280;37611;51.794;21.590;2023-02-18T22:06:02;99259.05;;;2.93;100.00
51526;BME280;37611;51.794;21.590;2023-02-18T22:10:04;99276.35;;;2.88;100.00
51526;BME280;37611;51.794;21.590;2023-02-18T22:14:06;99283.45;;;2.90;100.00
51526;BME280;37611;51.794;21.590;2023-02-18T22:18:09;99286.45;;;2.85;100.00
51526;BME280;37611;51.794;21.590;2023-02-18T22:22:11;99280.08;;;2.85;100.00
51526;BME280;37611;51.794;21.590;2023-02-18T22:26:12;99294.29;;;2.87;100.00
51526;BME280;37611;51.794;21.590;2023-02-18T22:30:15;99306.22;;;2.89;100.00
51526;BME280;37611;51.794;21.590;2023-02-18T22:34:20;99315.08;;;2.88;100.00
51526;BME280;37611;51.794;21.590;2023-02-18T22:38:22;99322.94;;;2.90;100.00
51526;BME280;37611;51.794;21.590;2023-02-18T22:42:24;99316.31;;;2.88;100.00
51526;BME280;37611;51.794;21.590;2023-02-18T22:46:26;99312.63;;;2.86;100.00
51526;BME280;37611;51.794;21.590;2023-02-18T22:50:28;99316.50;;;2.86;100.00
51526;BME280;37611;51.794;21.590;2023-02-18T22:54:30;99312.94;;;2.85;100.00
51526;BME280;37611;51.794;21.590;2023-02-18T22:58:32;99317.86;;;2.84;100.00
51526;BME280;37611;51.794;21.590;2023-02-18T23:02:34;99325.98;;;2.78;100.00
51526;BME280;37611;51.794;21.590;2023-02-18T23:06:38;99334.44;;;2.68;100.00
51526;BME280;37611;51.794;21.590;2023-02-18T23:10:40;99350.23;;;2.63;100.00
51526;BME280;37611;51.794;21.590;2023-02-18T23:14:41;99354.45;;;2.62;100.00
51526;BME280;37611;51.794;21.590;2023-02-18T23:18:43;99360.20;;;2.62;100.00
51526;BME280;37611;51.794;21.590;2023-02-18T23:22:45;99361.05;;;2.62;100.00
51526;BME280;37611;51.794;21.590;2023-02-18T23:26:46;99365.22;;;2.62;100.00
51526;BME280;37611;51.794;21.590;2023-02-18T23:30:48;99367.88;;;2.58;100.00
51526;BME280;37611;51.794;21.590;2023-02-18T23:34:50;99367.73;;;2.56;100.00
51526;BME280;37611;51.794;21.590;2023-02-18T23:38:55;99379.14;;;2.54;100.00
51526;BME280;37611;51.794;21.590;2023-02-18T23:42:57;99386.78;;;2.51;100.00
51526;BME280;37611;51.794;21.590;2023-02-18T23:46:58;99393.84;;;2.51;100.00
51526;BME280;37611;51.794;21.590;2023-02-18T23:51:02;99388.08;;;2.47;100.00
51526;BME280;37611;51.794;21.590;2023-02-18T23:55:04;99391.20;;;2.45;100.00